Terminal Aerodrome Forecast
Issued by NWS Wilmington, NC

Home | Current Version | Previous Version | Text Only | Print | Product List | Glossary On
Versions: 1 2 3 4 5 6 7 8 9 10 11 12 13
000
FTUS42 KILM 211100
TAFMYR
TAF
KMYR 211120Z 2112/2212 22003KT 6SM BR SCT150
     FM211300 24004KT P6SM BKN250
     FM211700 19012KT P6SM VCTS FEW025CB BKN040
     FM212300 20006KT P6SM SCT120=

USA.gov is the U.S. government's official web portal to all federal, state and local government web resources and services.